KHFY

Indy South Greenwood Airport

Indianapolis, Indiana, USA
METAR KHFY 230255Z AUTO 03006KT 10SM CLR 20/15 A3005 RMK AO2 6//// T02030150
Observed Flight Rules
May-23 @ 02:55 UTC (12 minutes ago) Visual Flight Rules
Wind Visibility Clouds
30° at 6 knots 10 miles
  • Clear skies
Temperatures Readings
Current 20°C / 68°F
Dewpoint 15°C / 59°F
Humidity 73%
Altimeter 30.05" Hg
Pressure 1018 hPa
Elevation 251
METAR KHFY 230255Z AUTO 03006KT 10SM CLR 20/15 A3005 RMK AO2 6//// T02030150
Observed Flight Rules
May-23 @ 02:55 UTC
(12 minutes ago)
VFR
Wind Visibility
30° at 6 knots 10 miles
Clouds
  • Clear skies
Temperature Dewpoint
20°C / 68°F 15°C / 59°F
Humidity Altimeter Pressure
73% 30.05" Hg 1018 hPa